sensor_id;sensor_type;location;lat;lon;timestamp;pressure;altitude;pressure_sealevel;temperature;humidity
36234;BME280;43467;50.890;5.982;2024-01-27T00:01:35;102027.50;;;6.17;68.17
36234;BME280;43467;50.890;5.982;2024-01-27T00:04:01;102032.78;;;6.11;68.54
36234;BME280;43467;50.890;5.982;2024-01-27T00:06:26;102037.13;;;6.13;68.74
36234;BME280;43467;50.890;5.982;2024-01-27T00:08:52;102038.00;;;6.12;68.65
36234;BME280;43467;50.890;5.982;2024-01-27T00:11:17;102037.13;;;6.01;68.90
36234;BME280;43467;50.890;5.982;2024-01-27T00:13:43;102039.75;;;5.98;69.12
36234;BME280;43467;50.890;5.982;2024-01-27T00:16:09;102032.72;;;6.00;69.18
36234;BME280;43467;50.890;5.982;2024-01-27T00:18:37;102027.47;;;5.92;69.43
36234;BME280;43467;50.890;5.982;2024-01-27T00:21:04;102034.47;;;5.89;69.58
36234;BME280;43467;50.890;5.982;2024-01-27T00:23:30;102035.34;;;5.92;69.39
36234;BME280;43467;50.890;5.982;2024-01-27T00:25:55;102035.34;;;5.95;69.24
36234;BME280;43467;50.890;5.982;2024-01-27T00:28:21;102034.50;;;6.02;69.42
36234;BME280;43467;50.890;5.982;2024-01-27T00:30:46;102037.13;;;6.05;68.96
36234;BME280;43467;50.890;5.982;2024-01-27T00:33:11;102038.88;;;6.05;68.73
36234;BME280;43467;50.890;5.982;2024-01-27T00:35:37;102046.75;;;5.87;69.29
36234;BME280;43467;50.890;5.982;2024-01-27T00:38:02;102032.69;;;5.85;69.42
36234;BME280;43467;50.890;5.982;2024-01-27T00:40:28;102047.63;;;5.90;69.29
36234;BME280;43467;50.890;5.982;2024-01-27T00:42:53;102050.28;;;5.95;69.12
36234;BME280;43467;50.890;5.982;2024-01-27T00:45:19;102051.13;;;5.94;69.09
36234;BME280;43467;50.890;5.982;2024-01-27T00:47:48;102061.63;;;5.95;69.17
36234;BME280;43467;50.890;5.982;2024-01-27T00:50:14;102065.16;;;5.97;69.13
36234;BME280;43467;50.890;5.982;2024-01-27T00:52:39;102059.91;;;6.02;69.01
36234;BME280;43467;50.890;5.982;2024-01-27T00:55:05;102062.53;;;6.00;68.95
36234;BME280;43467;50.890;5.982;2024-01-27T00:57:30;102066.94;;;6.01;68.96
36234;BME280;43467;50.890;5.982;2024-01-27T00:59:56;102064.25;;;5.95;68.83
36234;BME280;43467;50.890;5.982;2024-01-27T01:02:21;102057.28;;;5.97;68.69
36234;BME280;43467;50.890;5.982;2024-01-27T01:04:46;102064.31;;;5.98;68.96
36234;BME280;43467;50.890;5.982;2024-01-27T01:07:13;102063.41;;;5.95;68.76
36234;BME280;43467;50.890;5.982;2024-01-27T01:09:38;102073.94;;;6.01;68.92
36234;BME280;43467;50.890;5.982;2024-01-27T01:12:04;102066.94;;;5.98;68.88
36234;BME280;43467;50.890;5.982;2024-01-27T01:14:29;102073.06;;;5.94;68.68
36234;BME280;43467;50.890;5.982;2024-01-27T01:16:55;102072.16;;;5.97;69.08
36234;BME280;43467;50.890;5.982;2024-01-27T01:19:20;102067.75;;;5.88;69.11
36234;BME280;43467;50.890;5.982;2024-01-27T01:21:46;102070.34;;;5.84;69.09
36234;BME280;43467;50.890;5.982;2024-01-27T01:24:11;102072.09;;;5.85;69.27
36234;BME280;43467;50.890;5.982;2024-01-27T01:26:36;102072.09;;;5.82;69.16
36234;BME280;43467;50.890;5.982;2024-01-27T01:29:02;102076.47;;;5.84;69.21
36234;BME280;43467;50.890;5.982;2024-01-27T01:31:27;102081.69;;;5.75;69.53
36234;BME280;43467;50.890;5.982;2024-01-27T01:33:53;102070.31;;;5.69;69.35
36234;BME280;43467;50.890;5.982;2024-01-27T01:36:18;102080.00;;;5.82;69.22
36234;BME280;43467;50.890;5.982;2024-01-27T01:38:43;102079.09;;;5.81;69.46
36234;BME280;43467;50.890;5.982;2024-01-27T01:41:09;102076.50;;;5.86;68.81
36234;BME280;43467;50.890;5.982;2024-01-27T01:43:34;102082.59;;;5.76;69.13
36234;BME280;43467;50.890;5.982;2024-01-27T01:46:00;102074.72;;;5.77;69.24
36234;BME280;43467;50.890;5.982;2024-01-27T01:48:25;102085.22;;;5.76;69.23
36234;BME280;43467;50.890;5.982;2024-01-27T01:50:51;102077.28;;;5.63;69.22
36234;BME280;43467;50.890;5.982;2024-01-27T01:53:18;102085.19;;;5.68;69.39
36234;BME280;43467;50.890;5.982;2024-01-27T01:55:43;102082.56;;;5.62;69.46
36234;BME280;43467;50.890;5.982;2024-01-27T01:58:09;102079.88;;;5.59;69.52
36234;BME280;43467;50.890;5.982;2024-01-27T02:00:34;102084.25;;;5.55;69.50
36234;BME280;43467;50.890;5.982;2024-01-27T02:02:59;102076.38;;;5.58;69.99
36234;BME280;43467;50.890;5.982;2024-01-27T02:07:59;102085.19;;;5.65;69.34
36234;BME280;43467;50.890;5.982;2024-01-27T02:10:25;102079.03;;;5.61;69.20
36234;BME280;43467;50.890;5.982;2024-01-27T02:12:51;102073.81;;;5.72;68.90
36234;BME280;43467;50.890;5.982;2024-01-27T02:15:16;102076.44;;;5.66;68.94
36234;BME280;43467;50.890;5.982;2024-01-27T02:17:42;102079.94;;;5.68;69.08
36234;BME280;43467;50.890;5.982;2024-01-27T02:20:08;102079.03;;;5.61;68.90
36234;BME280;43467;50.890;5.982;2024-01-27T02:22:34;102079.91;;;5.63;68.76
36234;BME280;43467;50.890;5.982;2024-01-27T02:25:00;102079.06;;;5.69;68.97
36234;BME280;43467;50.890;5.982;2024-01-27T02:27:25;102076.41;;;5.61;68.86
36234;BME280;43467;50.890;5.982;2024-01-27T02:29:51;102086.91;;;5.63;68.65
36234;BME280;43467;50.890;5.982;2024-01-27T02:32:16;102089.53;;;5.54;68.78
36234;BME280;43467;50.890;5.982;2024-01-27T02:34:42;102086.06;;;5.67;68.91
36234;BME280;43467;50.890;5.982;2024-01-27T02:37:07;102089.59;;;5.75;68.39
36234;BME280;43467;50.890;5.982;2024-01-27T02:39:33;102091.28;;;5.62;68.33
36234;BME280;43467;50.890;5.982;2024-01-27T02:41:58;102088.66;;;5.62;68.46
36234;BME280;43467;50.890;5.982;2024-01-27T02:44:24;102085.22;;;5.77;68.17
36234;BME280;43467;50.890;5.982;2024-01-27T02:46:49;102074.72;;;5.85;67.70
36234;BME280;43467;50.890;5.982;2024-01-27T02:49:15;102079.16;;;5.89;67.43
36234;BME280;43467;50.890;5.982;2024-01-27T02:51:40;102072.94;;;5.79;67.47
36234;BME280;43467;50.890;5.982;2024-01-27T02:54:05;102080.91;;;5.91;67.04
36234;BME280;43467;50.890;5.982;2024-01-27T02:56:31;102081.72;;;5.81;67.47
36234;BME280;43467;50.890;5.982;2024-01-27T02:58:56;102083.47;;;5.79;67.26
36234;BME280;43467;50.890;5.982;2024-01-27T03:01:21;102084.38;;;5.81;67.16
36234;BME280;43467;50.890;5.982;2024-01-27T03:03:47;102077.41;;;5.88;67.24
36234;BME280;43467;50.890;5.982;2024-01-27T03:06:12;102080.94;;;5.90;66.80
36234;BME280;43467;50.890;5.982;2024-01-27T03:08:38;102072.16;;;5.97;67.01
36234;BME280;43467;50.890;5.982;2024-01-27T03:11:03;102066.03;;;6.04;66.76
36234;BME280;43467;50.890;5.982;2024-01-27T03:13:30;102069.56;;;6.06;66.22
36234;BME280;43467;50.890;5.982;2024-01-27T03:15:55;102066.09;;;6.15;66.44
36234;BME280;43467;50.890;5.982;2024-01-27T03:18:21;102069.56;;;6.09;66.14
36234;BME280;43467;50.890;5.982;2024-01-27T03:20:47;102068.69;;;6.16;65.85
36234;BME280;43467;50.890;5.982;2024-01-27T03:23:12;102068.72;;;6.22;65.68
36234;BME280;43467;50.890;5.982;2024-01-27T03:25:38;102072.22;;;6.24;65.63
36234;BME280;43467;50.890;5.982;2024-01-27T03:28:03;102086.22;;;6.20;65.34
36234;BME280;43467;50.890;5.982;2024-01-27T03:30:29;102073.09;;;6.28;65.62
36234;BME280;43467;50.890;5.982;2024-01-27T03:32:54;102079.25;;;6.27;65.23
36234;BME280;43467;50.890;5.982;2024-01-27T03:35:20;102082.75;;;6.30;65.42
36234;BME280;43467;50.890;5.982;2024-01-27T03:37:45;102080.13;;;6.23;65.20
36234;BME280;43467;50.890;5.982;2024-01-27T03:40:11;102078.34;;;6.17;65.33
36234;BME280;43467;50.890;5.982;2024-01-27T03:42:36;102073.06;;;5.97;65.16
36234;BME280;43467;50.890;5.982;2024-01-27T03:45:02;102079.19;;;5.98;65.44
36234;BME280;43467;50.890;5.982;2024-01-27T03:47:27;102085.22;;;5.83;66.11
36234;BME280;43467;50.890;5.982;2024-01-27T03:49:53;102088.75;;;5.85;66.13
36234;BME280;43467;50.890;5.982;2024-01-27T03:52:18;102089.59;;;5.74;66.38
36234;BME280;43467;50.890;5.982;2024-01-27T03:54:44;102085.19;;;5.70;66.50
36234;BME280;43467;50.890;5.982;2024-01-27T03:57:09;102100.06;;;5.65;66.80
36234;BME280;43467;50.890;5.982;2024-01-27T03:59:34;102090.38;;;5.56;66.65
36234;BME280;43467;50.890;5.982;2024-01-27T04:02:00;102094.75;;;5.52;67.20
36234;BME280;43467;50.890;5.982;2024-01-27T04:04:25;102087.75;;;5.50;67.00
36234;BME280;43467;50.890;5.982;2024-01-27T04:06:51;102085.09;;;5.47;67.22
36234;BME280;43467;50.890;5.982;2024-01-27T04:09:16;102088.56;;;5.40;67.08
36234;BME280;43467;50.890;5.982;2024-01-27T04:11:42;102098.19;;;5.42;67.46
36234;BME280;43467;50.890;5.982;2024-01-27T04:14:07;102098.22;;;5.41;67.48
36234;BME280;43467;50.890;5.982;2024-01-27T04:16:33;102097.31;;;5.39;67.43
36234;BME280;43467;50.890;5.982;2024-01-27T04:18:58;102100.91;;;5.53;67.25
36234;BME280;43467;50.890;5.982;2024-01-27T04:21:24;102103.56;;;5.60;67.05
36234;BME280;43467;50.890;5.982;2024-01-27T04:23:49;102100.06;;;5.65;66.59
36234;BME280;43467;50.890;5.982;2024-01-27T04:26:15;102108.00;;;5.78;66.50
36234;BME280;43467;50.890;5.982;2024-01-27T04:28:40;102101.06;;;5.88;66.31
36234;BME280;43467;50.890;5.982;2024-01-27T04:31:05;102099.31;;;5.87;65.88
36234;BME280;43467;50.890;5.982;2024-01-27T04:33:31;102093.19;;;5.89;65.84
36234;BME280;43467;50.890;5.982;2024-01-27T04:35:57;102097.56;;;5.93;65.85
36234;BME280;43467;50.890;5.982;2024-01-27T04:38:22;102096.69;;;5.96;65.77
36234;BME280;43467;50.890;5.982;2024-01-27T04:40:49;102102.84;;;5.93;65.50
36234;BME280;43467;50.890;5.982;2024-01-27T04:43:18;102106.38;;;6.01;65.10
36234;BME280;43467;50.890;5.982;2024-01-27T04:45:44;102087.06;;;5.90;65.32
36234;BME280;43467;50.890;5.982;2024-01-27T04:48:09;102108.13;;;6.01;65.55
36234;BME280;43467;50.890;5.982;2024-01-27T04:50:35;102100.25;;;6.02;65.45
36234;BME280;43467;50.890;5.982;2024-01-27T04:53:00;102103.69;;;5.92;65.13
36234;BME280;43467;50.890;5.982;2024-01-27T04:55:26;102106.34;;;5.95;65.70
36234;BME280;43467;50.890;5.982;2024-01-27T04:57:51;102100.13;;;5.81;65.83
36234;BME280;43467;50.890;5.982;2024-01-27T05:00:17;102096.59;;;5.76;66.17
36234;BME280;43467;50.890;5.982;2024-01-27T05:02:43;102104.50;;;5.76;66.14
36234;BME280;43467;50.890;5.982;2024-01-27T05:05:08;102101.00;;;5.83;66.30
36234;BME280;43467;50.890;5.982;2024-01-27T05:07:34;102106.25;;;5.83;66.19
36234;BME280;43467;50.890;5.982;2024-01-27T05:10:00;102106.31;;;5.86;66.18
36234;BME280;43467;50.890;5.982;2024-01-27T05:12:25;102102.84;;;5.93;66.16
36234;BME280;43467;50.890;5.982;2024-01-27T05:14:51;102108.06;;;5.89;66.09
36234;BME280;43467;50.890;5.982;2024-01-27T05:17:16;102105.44;;;5.87;65.91
36234;BME280;43467;50.890;5.982;2024-01-27T05:19:41;102097.56;;;5.90;66.27
36234;BME280;43467;50.890;5.982;2024-01-27T05:22:07;102095.84;;;5.98;65.82
36234;BME280;43467;50.890;5.982;2024-01-27T05:24:32;102099.34;;;5.99;65.72
36234;BME280;43467;50.890;5.982;2024-01-27T05:26:58;102116.88;;;5.91;65.92
36234;BME280;43467;50.890;5.982;2024-01-27T05:29:24;102114.25;;;5.97;66.21
36234;BME280;43467;50.890;5.982;2024-01-27T05:31:49;102101.94;;;5.91;65.95
36234;BME280;43467;50.890;5.982;2024-01-27T05:34:15;102103.69;;;5.89;66.25
36234;BME280;43467;50.890;5.982;2024-01-27T05:36:40;102094.91;;;5.87;66.77
36234;BME280;43467;50.890;5.982;2024-01-27T05:39:05;102091.41;;;5.88;66.32
36234;BME280;43467;50.890;5.982;2024-01-27T05:41:32;102095.75;;;5.80;66.44
36234;BME280;43467;50.890;5.982;2024-01-27T05:43:57;102093.09;;;5.74;66.63
36234;BME280;43467;50.890;5.982;2024-01-27T05:46:24;102094.88;;;5.78;66.75
36234;BME280;43467;50.890;5.982;2024-01-27T05:48:49;102091.38;;;5.78;66.84
36234;BME280;43467;50.890;5.982;2024-01-27T05:51:16;102093.06;;;5.67;66.85
36234;BME280;43467;50.890;5.982;2024-01-27T05:53:41;102100.09;;;5.72;67.13
36234;BME280;43467;50.890;5.982;2024-01-27T05:56:07;102094.81;;;5.71;67.12
36234;BME280;43467;50.890;5.982;2024-01-27T05:58:32;102092.16;;;5.60;66.90
36234;BME280;43467;50.890;5.982;2024-01-27T06:00:58;102092.22;;;5.75;67.08
36234;BME280;43467;50.890;5.982;2024-01-27T06:03:23;102093.09;;;5.74;67.24
36234;BME280;43467;50.890;5.982;2024-01-27T06:05:49;102079.09;;;5.78;67.36
36234;BME280;43467;50.890;5.982;2024-01-27T06:08:14;102094.91;;;5.83;67.07
36234;BME280;43467;50.890;5.982;2024-01-27T06:10:40;102096.66;;;5.82;67.03
36234;BME280;43467;50.890;5.982;2024-01-27T06:13:05;102105.38;;;5.80;67.02
36234;BME280;43467;50.890;5.982;2024-01-27T06:15:31;102108.00;;;5.74;67.25
36234;BME280;43467;50.890;5.982;2024-01-27T06:17:56;102100.94;;;5.68;67.06
36234;BME280;43467;50.890;5.982;2024-01-27T06:20:23;102115.81;;;5.61;67.32
36234;BME280;43467;50.890;5.982;2024-01-27T06:22:48;102123.69;;;5.60;67.73
36234;BME280;43467;50.890;5.982;2024-01-27T06:25:14;102110.56;;;5.63;67.55
36234;BME280;43467;50.890;5.982;2024-01-27T06:27:39;102118.50;;;5.72;67.33
36234;BME280;43467;50.890;5.982;2024-01-27T06:30:07;102114.09;;;5.68;67.51
36234;BME280;43467;50.890;5.982;2024-01-27T06:32:33;102114.06;;;5.60;67.39
36234;BME280;43467;50.890;5.982;2024-01-27T06:34:58;102115.81;;;5.57;67.42
36234;BME280;43467;50.890;5.982;2024-01-27T06:37:24;102112.31;;;5.58;67.09
36234;BME280;43467;50.890;5.982;2024-01-27T06:39:49;102113.16;;;5.58;67.33
36234;BME280;43467;50.890;5.982;2024-01-27T06:42:14;102116.66;;;5.50;67.29
36234;BME280;43467;50.890;5.982;2024-01-27T06:44:40;102121.91;;;5.51;67.15
36234;BME280;43467;50.890;5.982;2024-01-27T06:47:05;102126.25;;;5.42;67.70
36234;BME280;43467;50.890;5.982;2024-01-27T06:49:31;102119.19;;;5.36;67.77
36234;BME280;43467;50.890;5.982;2024-01-27T06:51:58;102118.31;;;5.36;67.87
36234;BME280;43467;50.890;5.982;2024-01-27T06:54:23;102115.66;;;5.28;68.00
36234;BME280;43467;50.890;5.982;2024-01-27T06:56:49;102106.06;;;5.39;67.86
36234;BME280;43467;50.890;5.982;2024-01-27T06:59:14;102112.19;;;5.34;68.02
36234;BME280;43467;50.890;5.982;2024-01-27T07:01:47;102118.22;;;5.19;68.30
36234;BME280;43467;50.890;5.982;2024-01-27T07:04:16;102109.50;;;5.25;68.11
36234;BME280;43467;50.890;5.982;2024-01-27T07:06:42;102113.91;;;5.26;68.02
36234;BME280;43467;50.890;5.982;2024-01-27T07:09:08;102119.94;;;5.19;68.19
36234;BME280;43467;50.890;5.982;2024-01-27T07:11:35;102109.44;;;5.15;68.21
36234;BME280;43467;50.890;5.982;2024-01-27T07:14:00;102105.94;;;5.17;68.26
36234;BME280;43467;50.890;5.982;2024-01-27T07:16:26;102102.44;;;5.13;68.74
36234;BME280;43467;50.890;5.982;2024-01-27T07:18:51;102120.84;;;5.22;68.26
36234;BME280;43467;50.890;5.982;2024-01-27T07:21:17;102119.88;;;5.09;68.53
36234;BME280;43467;50.890;5.982;2024-01-27T07:23:43;102124.28;;;5.13;68.63
36234;BME280;43467;50.890;5.982;2024-01-27T07:26:10;102132.22;;;5.23;68.19
36234;BME280;43467;50.890;5.982;2024-01-27T07:28:35;102131.38;;;5.25;67.80
36234;BME280;43467;50.890;5.982;2024-01-27T07:31:00;102142.84;;;5.36;67.85
36234;BME280;43467;50.890;5.982;2024-01-27T07:33:26;102142.88;;;5.44;67.56
36234;BME280;43467;50.890;5.982;2024-01-27T07:35:51;102129.72;;;5.42;67.31
36234;BME280;43467;50.890;5.982;2024-01-27T07:38:16;102142.88;;;5.47;67.28
36234;BME280;43467;50.890;5.982;2024-01-27T07:40:42;102145.53;;;5.48;67.43
36234;BME280;43467;50.890;5.982;2024-01-27T07:43:07;102154.34;;;5.56;67.18
36234;BME280;43467;50.890;5.982;2024-01-27T07:45:33;102153.38;;;5.47;67.18
36234;BME280;43467;50.890;5.982;2024-01-27T07:47:58;102163.94;;;5.50;66.94
36234;BME280;43467;50.890;5.982;2024-01-27T07:50:24;102163.03;;;5.51;67.02
36234;BME280;43467;50.890;5.982;2024-01-27T07:52:49;102156.03;;;5.45;66.86
36234;BME280;43467;50.890;5.982;2024-01-27T07:55:15;102159.50;;;5.41;67.31
36234;BME280;43467;50.890;5.982;2024-01-27T07:57:42;102162.09;;;5.40;67.46
36234;BME280;43467;50.890;5.982;2024-01-27T08:00:08;102165.69;;;5.52;67.38
36234;BME280;43467;50.890;5.982;2024-01-27T08:02:33;102166.56;;;5.53;66.93
36234;BME280;43467;50.890;5.982;2024-01-27T08:04:59;102163.97;;;5.56;67.03
36234;BME280;43467;50.890;5.982;2024-01-27T08:07:24;102166.56;;;5.51;67.17
36234;BME280;43467;50.890;5.982;2024-01-27T08:09:49;102157.00;;;5.61;67.09
36234;BME280;43467;50.890;5.982;2024-01-27T08:12:15;102163.19;;;5.74;66.80
36234;BME280;43467;50.890;5.982;2024-01-27T08:14:40;102160.59;;;5.81;66.85
36234;BME280;43467;50.890;5.982;2024-01-27T08:17:06;102159.78;;;5.90;66.36
36234;BME280;43467;50.890;5.982;2024-01-27T08:19:31;102161.56;;;6.00;66.37
36234;BME280;43467;50.890;5.982;2024-01-27T08:21:56;102160.69;;;5.96;66.40
36234;BME280;43467;50.890;5.982;2024-01-27T08:24:22;102158.97;;;6.07;66.09
36234;BME280;43467;50.890;5.982;2024-01-27T08:26:49;102169.50;;;6.17;65.83
36234;BME280;43467;50.890;5.982;2024-01-27T08:29:15;102171.28;;;6.24;65.82
36234;BME280;43467;50.890;5.982;2024-01-27T08:31:41;102154.66;;;6.26;65.66
36234;BME280;43467;50.890;5.982;2024-01-27T08:34:07;102155.53;;;6.34;65.62
36234;BME280;43467;50.890;5.982;2024-01-27T08:36:32;102160.81;;;6.31;65.66
36234;BME280;43467;50.890;5.982;2024-01-27T08:38:59;102156.41;;;6.27;65.69
36234;BME280;43467;50.890;5.982;2024-01-27T08:41:24;102155.53;;;6.37;65.46
36234;BME280;43467;50.890;5.982;2024-01-27T08:43:50;102161.69;;;6.44;65.23
36234;BME280;43467;50.890;5.982;2024-01-27T08:46:15;102169.59;;;6.39;65.28
36234;BME280;43467;50.890;5.982;2024-01-27T08:48:42;102168.72;;;6.49;64.94
36234;BME280;43467;50.890;5.982;2024-01-27T08:51:09;102148.56;;;6.56;64.69
36234;BME280;43467;50.890;5.982;2024-01-27T08:53:35;102150.31;;;6.57;64.56
36234;BME280;43467;50.890;5.982;2024-01-27T08:56:01;102155.56;;;6.43;64.88
36234;BME280;43467;50.890;5.982;2024-01-27T08:58:26;102147.66;;;6.40;64.74
36234;BME280;43467;50.890;5.982;2024-01-27T09:00:52;102153.81;;;6.48;64.56
36234;BME280;43467;50.890;5.982;2024-01-27T09:03:18;102163.47;;;6.43;64.51
36234;BME280;43467;50.890;5.982;2024-01-27T09:05:46;102166.06;;;6.37;64.64
36234;BME280;43467;50.890;5.982;2024-01-27T09:08:11;102170.47;;;6.41;64.80
36234;BME280;43467;50.890;5.982;2024-01-27T09:10:37;102177.47;;;6.44;64.46
36234;BME280;43467;50.890;5.982;2024-01-27T09:13:02;102166.97;;;6.53;64.62
36234;BME280;43467;50.890;5.982;2024-01-27T09:15:28;102163.47;;;6.59;64.26
36234;BME280;43467;50.890;5.982;2024-01-27T09:17:53;102169.66;;;6.68;63.90
36234;BME280;43467;50.890;5.982;2024-01-27T09:20:19;102173.16;;;6.75;64.09
36234;BME280;43467;50.890;5.982;2024-01-27T09:22:45;102162.59;;;6.61;63.27
36234;BME280;43467;50.890;5.982;2024-01-27T09:25:12;102174.88;;;6.70;63.36
36234;BME280;43467;50.890;5.982;2024-01-27T09:27:39;102179.28;;;6.66;63.17
36234;BME280;43467;50.890;5.982;2024-01-27T09:30:05;102178.44;;;6.84;63.57
36234;BME280;43467;50.890;5.982;2024-01-27T09:32:31;102193.34;;;6.79;63.16
36234;BME280;43467;50.890;5.982;2024-01-27T09:34:56;102187.19;;;6.87;63.15
36234;BME280;43467;50.890;5.982;2024-01-27T09:37:22;102181.91;;;6.89;62.89
36234;BME280;43467;50.890;5.982;2024-01-27T09:39:47;102189.84;;;6.84;62.88
36234;BME280;43467;50.890;5.982;2024-01-27T09:42:13;102183.69;;;6.82;63.04
36234;BME280;43467;50.890;5.982;2024-01-27T09:44:44;102179.31;;;6.96;63.46
36234;BME280;43467;50.890;5.982;2024-01-27T09:47:11;102174.91;;;7.03;62.79
36234;BME280;43467;50.890;5.982;2024-01-27T09:49:39;102180.16;;;6.85;63.05
36234;BME280;43467;50.890;5.982;2024-01-27T09:52:05;102174.03;;;6.78;62.93
36234;BME280;43467;50.890;5.982;2024-01-27T09:54:31;102180.16;;;6.71;62.97
36234;BME280;43467;50.890;5.982;2024-01-27T09:56:57;102181.03;;;6.93;62.81
36234;BME280;43467;50.890;5.982;2024-01-27T09:59:24;102180.16;;;6.89;62.84
36234;BME280;43467;50.890;5.982;2024-01-27T10:01:51;102182.81;;;6.95;62.71
36234;BME280;43467;50.890;5.982;2024-01-27T10:04:19;102179.28;;;6.98;63.13
36234;BME280;43467;50.890;5.982;2024-01-27T10:06:45;102173.16;;;7.11;62.51
36234;BME280;43467;50.890;5.982;2024-01-27T10:09:11;102180.19;;;7.21;62.45
36234;BME280;43467;50.890;5.982;2024-01-27T10:11:39;102172.28;;;7.20;62.56
36234;BME280;43467;50.890;5.982;2024-01-27T10:14:06;102164.38;;;7.05;62.40
36234;BME280;43467;50.890;5.982;2024-01-27T10:16:40;102167.88;;;7.10;62.72
36234;BME280;43467;50.890;5.982;2024-01-27T10:19:06;102188.09;;;7.12;62.31
36234;BME280;43467;50.890;5.982;2024-01-27T10:21:31;102180.19;;;7.20;62.80
36234;BME280;43467;50.890;5.982;2024-01-27T10:23:57;102176.66;;;7.28;62.79
36234;BME280;43467;50.890;5.982;2024-01-27T10:26:23;102181.94;;;7.33;62.70
36234;BME280;43467;50.890;5.982;2024-01-27T10:28:55;102192.44;;;7.30;62.12
36234;BME280;43467;50.890;5.982;2024-01-27T10:31:26;102179.28;;;7.36;62.05
36234;BME280;43467;50.890;5.982;2024-01-27T10:33:53;102188.94;;;7.28;62.09
36234;BME280;43467;50.890;5.982;2024-01-27T10:36:20;102187.19;;;7.31;62.40
36234;BME280;43467;50.890;5.982;2024-01-27T10:38:45;102179.28;;;7.40;62.26
36234;BME280;43467;50.890;5.982;2024-01-27T10:41:11;102174.88;;;7.45;61.96
36234;BME280;43467;50.890;5.982;2024-01-27T10:43:37;102166.97;;;7.39;61.91
36234;BME280;43467;50.890;5.982;2024-01-27T10:46:08;102164.31;;;7.38;62.34
36234;BME280;43467;50.890;5.982;2024-01-27T10:48:34;102169.59;;;7.42;62.12
36234;BME280;43467;50.890;5.982;2024-01-27T10:51:03;102183.63;;;7.46;62.25
36234;BME280;43467;50.890;5.982;2024-01-27T10:53:32;102188.94;;;7.49;62.27
36234;BME280;43467;50.890;5.982;2024-01-27T10:56:01;102187.13;;;7.56;62.90
36234;BME280;43467;50.890;5.982;2024-01-27T10:58:29;102189.78;;;7.57;62.51
36234;BME280;43467;50.890;5.982;2024-01-27T11:00:56;102194.16;;;7.61;62.50
36234;BME280;43467;50.890;5.982;2024-01-27T11:03:22;102191.53;;;7.66;61.59
36234;BME280;43467;50.890;5.982;2024-01-27T11:05:50;102192.38;;;7.69;61.52
36234;BME280;43467;50.890;5.982;2024-01-27T11:08:18;102186.22;;;7.70;60.91
36234;BME280;43467;50.890;5.982;2024-01-27T11:10:44;102196.75;;;7.75;60.98
36234;BME280;43467;50.890;5.982;2024-01-27T11:13:10;102195.00;;;7.78;61.06
36234;BME280;43467;50.890;5.982;2024-01-27T11:15:36;102188.00;;;7.62;60.94
36234;BME280;43467;50.890;5.982;2024-01-27T11:18:02;102190.63;;;7.67;61.20
36234;BME280;43467;50.890;5.982;2024-01-27T11:20:32;102193.25;;;7.62;61.28
36234;BME280;43467;50.890;5.982;2024-01-27T11:23:12;102190.66;;;7.56;61.17
36234;BME280;43467;50.890;5.982;2024-01-27T11:25:39;102177.47;;;7.52;61.30
36234;BME280;43467;50.890;5.982;2024-01-27T11:28:15;102181.91;;;7.43;61.08
36234;BME280;43467;50.890;5.982;2024-01-27T11:30:46;102181.00;;;7.51;61.52
36234;BME280;43467;50.890;5.982;2024-01-27T11:33:12;102185.38;;;7.61;61.64
36234;BME280;43467;50.890;5.982;2024-01-27T11:35:37;102186.25;;;7.55;61.82
36234;BME280;43467;50.890;5.982;2024-01-27T11:38:03;102180.09;;;7.65;61.27
36234;BME280;43467;50.890;5.982;2024-01-27T11:40:28;102190.59;;;7.76;61.20
36234;BME280;43467;50.890;5.982;2024-01-27T11:43:00;102189.72;;;7.71;61.42
36234;BME280;43467;50.890;5.982;2024-01-27T11:45:26;102192.38;;;7.68;61.00
36234;BME280;43467;50.890;5.982;2024-01-27T11:47:53;102173.91;;;7.71;60.52
36234;BME280;43467;50.890;5.982;2024-01-27T11:50:20;102178.28;;;7.75;60.45
36234;BME280;43467;50.890;5.982;2024-01-27T11:52:46;102178.31;;;7.70;61.09
36234;BME280;43467;50.890;5.982;2024-01-27T11:55:12;102169.56;;;7.59;60.38
36234;BME280;43467;50.890;5.982;2024-01-27T11:57:37;102180.09;;;7.61;60.12
36234;BME280;43467;50.890;5.982;2024-01-27T12:00:03;102172.19;;;7.59;60.58
36234;BME280;43467;50.890;5.982;2024-01-27T12:02:29;102166.94;;;7.56;60.33
36234;BME280;43467;50.890;5.982;2024-01-27T12:04:55;102165.19;;;7.54;60.30
36234;BME280;43467;50.890;5.982;2024-01-27T12:07:20;102158.13;;;7.65;60.22
36234;BME280;43467;50.890;5.982;2024-01-27T12:09:48;102168.66;;;7.66;60.03
36234;BME280;43467;50.890;5.982;2024-01-27T12:12:13;102158.13;;;7.69;60.49
36234;BME280;43467;50.890;5.982;2024-01-27T12:14:45;102164.25;;;7.68;60.11
36234;BME280;43467;50.890;5.982;2024-01-27T12:17:11;102164.28;;;7.70;60.01
36234;BME280;43467;50.890;5.982;2024-01-27T12:19:37;102166.00;;;7.66;60.60
36234;BME280;43467;50.890;5.982;2024-01-27T12:22:04;102167.78;;;7.73;60.35
36234;BME280;43467;50.890;5.982;2024-01-27T12:24:30;102157.19;;;7.79;60.52
36234;BME280;43467;50.890;5.982;2024-01-27T12:26:57;102150.16;;;7.86;60.93
36234;BME280;43467;50.890;5.982;2024-01-27T12:29:23;102144.84;;;7.87;60.23
36234;BME280;43467;50.890;5.982;2024-01-27T12:31:49;102148.28;;;8.05;60.75
36234;BME280;43467;50.890;5.982;2024-01-27T12:34:15;102134.19;;;8.13;60.06
36234;BME280;43467;50.890;5.982;2024-01-27T12:36:41;102128.94;;;8.09;60.09
36234;BME280;43467;50.890;5.982;2024-01-27T12:39:08;102134.09;;;8.24;59.94
36234;BME280;43467;50.890;5.982;2024-01-27T12:41:34;102131.47;;;8.33;59.22
36234;BME280;43467;50.890;5.982;2024-01-27T12:44:00;102129.72;;;8.30;58.60
36234;BME280;43467;50.890;5.982;2024-01-27T12:46:25;102127.06;;;8.32;58.42
36234;BME280;43467;50.890;5.982;2024-01-27T12:48:51;102128.84;;;8.30;57.97
36234;BME280;43467;50.890;5.982;2024-01-27T12:51:17;102127.91;;;8.35;58.35
36234;BME280;43467;50.890;5.982;2024-01-27T12:53:43;102128.78;;;8.37;58.07
36234;BME280;43467;50.890;5.982;2024-01-27T12:56:10;102122.63;;;8.37;58.38